In Rescue
 
Open Full Screen Window  High Contrast Mode
Wind Gusting 00 knots
06
September 21, 2020 11:34 PM CDT
Weather Information
Wind Direction
  180 °
Wind Speed
  06 kt (7 mph)
Wind Gust
  00 kt (0 mph)
Altimeter
30.09 in
Visibility
10 SM
Temperature
16° C
61° F
Dewpoint
14° C
57° F
Humidity
88%
1hr Rain Fall
00.00 in.
24hr Rain Fall
00.00 in.
Sky Condition
Clear
VFR

METAR KGDB 220434Z AUTO 18006KT 10SM CLR 16/14 A3009 RMK AO2 T01580136

FAA Disclaimer: The data displayed is for advisory purposes only and is not to be used for flight planning or operations.